sensor_id;sensor_type;location;lat;lon;timestamp;P1;durP1;ratioP1;P2;durP2;ratioP2
10126;SDS011;13080;42.608;23.362;2023-05-08T00:01:24;3.28;;;2.83;;
10126;SDS011;13080;42.608;23.362;2023-05-08T00:03:52;5.13;;;2.83;;
10126;SDS011;13080;42.608;23.362;2023-05-08T00:06:19;6.07;;;2.70;;
10126;SDS011;13080;42.608;23.362;2023-05-08T00:08:46;3.72;;;2.65;;
10126;SDS011;13080;42.608;23.362;2023-05-08T00:11:13;3.63;;;2.90;;
10126;SDS011;13080;42.608;23.362;2023-05-08T00:13:39;4.80;;;3.40;;
10126;SDS011;13080;42.608;23.362;2023-05-08T00:16:06;4.75;;;3.30;;
10126;SDS011;13080;42.608;23.362;2023-05-08T00:18:35;5.50;;;3.65;;
10126;SDS011;13080;42.608;23.362;2023-05-08T00:21:04;5.10;;;3.88;;
10126;SDS011;13080;42.608;23.362;2023-05-08T00:23:31;11.07;;;5.50;;
10126;SDS011;13080;42.608;23.362;2023-05-08T00:25:58;14.32;;;7.93;;
10126;SDS011;13080;42.608;23.362;2023-05-08T00:28:25;13.85;;;6.80;;
10126;SDS011;13080;42.608;23.362;2023-05-08T00:30:52;7.88;;;4.53;;
10126;SDS011;13080;42.608;23.362;2023-05-08T00:33:19;5.85;;;4.70;;
10126;SDS011;13080;42.608;23.362;2023-05-08T00:35:45;5.72;;;4.90;;
10126;SDS011;13080;42.608;23.362;2023-05-08T00:38:13;8.60;;;4.93;;
10126;SDS011;13080;42.608;23.362;2023-05-08T00:40:40;6.40;;;4.10;;
10126;SDS011;13080;42.608;23.362;2023-05-08T00:43:07;7.30;;;4.13;;
10126;SDS011;13080;42.608;23.362;2023-05-08T00:45:35;7.95;;;4.50;;
10126;SDS011;13080;42.608;23.362;2023-05-08T00:48:03;8.38;;;4.70;;
10126;SDS011;13080;42.608;23.362;2023-05-08T00:50:30;5.82;;;4.53;;
10126;SDS011;13080;42.608;23.362;2023-05-08T00:52:57;6.57;;;5.70;;
10126;SDS011;13080;42.608;23.362;2023-05-08T00:55:29;8.02;;;4.53;;
10126;SDS011;13080;42.608;23.362;2023-05-08T00:57:58;7.95;;;4.88;;
10126;SDS011;13080;42.608;23.362;2023-05-08T01:00:24;5.43;;;4.25;;
10126;SDS011;13080;42.608;23.362;2023-05-08T01:02:52;7.82;;;5.07;;
10126;SDS011;13080;42.608;23.362;2023-05-08T01:05:19;10.45;;;6.40;;
10126;SDS011;13080;42.608;23.362;2023-05-08T01:07:45;8.63;;;5.78;;
10126;SDS011;13080;42.608;23.362;2023-05-08T01:10:13;8.07;;;4.57;;
10126;SDS011;13080;42.608;23.362;2023-05-08T01:12:46;9.57;;;5.45;;
10126;SDS011;13080;42.608;23.362;2023-05-08T01:15:20;7.07;;;5.03;;
10126;SDS011;13080;42.608;23.362;2023-05-08T01:17:56;6.45;;;4.75;;
10126;SDS011;13080;42.608;23.362;2023-05-08T01:20:39;7.05;;;4.85;;
10126;SDS011;13080;42.608;23.362;2023-05-08T01:23:23;6.22;;;5.35;;
10126;SDS011;13080;42.608;23.362;2023-05-08T01:29:27;8.25;;;5.32;;
10126;SDS011;13080;42.608;23.362;2023-05-08T01:32:13;7.95;;;5.30;;
10126;SDS011;13080;42.608;23.362;2023-05-08T01:34:45;6.72;;;5.20;;
10126;SDS011;13080;42.608;23.362;2023-05-08T01:37:19;8.27;;;4.70;;
10126;SDS011;13080;42.608;23.362;2023-05-08T01:39:54;7.13;;;4.78;;
10126;SDS011;13080;42.608;23.362;2023-05-08T01:42:30;6.95;;;4.90;;
10126;SDS011;13080;42.608;23.362;2023-05-08T01:45:04;6.55;;;4.57;;
10126;SDS011;13080;42.608;23.362;2023-05-08T01:47:38;8.13;;;4.72;;
10126;SDS011;13080;42.608;23.362;2023-05-08T01:50:09;12.13;;;5.35;;
10126;SDS011;13080;42.608;23.362;2023-05-08T01:52:42;8.35;;;5.03;;
10126;SDS011;13080;42.608;23.362;2023-05-08T01:55:14;8.88;;;5.72;;
10126;SDS011;13080;42.608;23.362;2023-05-08T01:57:46;7.47;;;4.78;;
10126;SDS011;13080;42.608;23.362;2023-05-08T02:00:16;6.97;;;4.80;;
10126;SDS011;13080;42.608;23.362;2023-05-08T02:02:47;6.18;;;4.65;;
10126;SDS011;13080;42.608;23.362;2023-05-08T02:05:16;6.82;;;5.55;;
10126;SDS011;13080;42.608;23.362;2023-05-08T02:07:46;8.55;;;5.00;;
10126;SDS011;13080;42.608;23.362;2023-05-08T02:10:14;6.28;;;4.63;;
10126;SDS011;13080;42.608;23.362;2023-05-08T02:12:42;8.10;;;4.50;;
10126;SDS011;13080;42.608;23.362;2023-05-08T02:15:11;9.00;;;4.65;;
10126;SDS011;13080;42.608;23.362;2023-05-08T02:17:39;8.60;;;4.63;;
10126;SDS011;13080;42.608;23.362;2023-05-08T02:20:09;9.43;;;6.60;;
10126;SDS011;13080;42.608;23.362;2023-05-08T02:22:39;9.10;;;5.65;;
10126;SDS011;13080;42.608;23.362;2023-05-08T02:25:08;7.43;;;4.88;;
10126;SDS011;13080;42.608;23.362;2023-05-08T02:27:38;10.40;;;5.63;;
10126;SDS011;13080;42.608;23.362;2023-05-08T02:30:09;8.00;;;5.55;;
10126;SDS011;13080;42.608;23.362;2023-05-08T02:32:39;8.07;;;5.13;;
10126;SDS011;13080;42.608;23.362;2023-05-08T02:35:09;107.93;;;52.00;;
10126;SDS011;13080;42.608;23.362;2023-05-08T02:37:39;21.98;;;13.73;;
10126;SDS011;13080;42.608;23.362;2023-05-08T02:40:08;58.08;;;46.17;;
10126;SDS011;13080;42.608;23.362;2023-05-08T02:42:36;51.95;;;40.80;;
10126;SDS011;13080;42.608;23.362;2023-05-08T02:45:04;60.58;;;53.45;;
10126;SDS011;13080;42.608;23.362;2023-05-08T02:47:33;44.25;;;37.50;;
10126;SDS011;13080;42.608;23.362;2023-05-08T02:50:11;31.75;;;25.40;;
10126;SDS011;13080;42.608;23.362;2023-05-08T02:52:43;11.73;;;10.18;;
10126;SDS011;13080;42.608;23.362;2023-05-08T02:55:14;14.30;;;11.85;;
10126;SDS011;13080;42.608;23.362;2023-05-08T02:57:59;9.85;;;8.07;;
10126;SDS011;13080;42.608;23.362;2023-05-08T03:00:33;8.10;;;6.57;;
10126;SDS011;13080;42.608;23.362;2023-05-08T03:03:06;14.02;;;12.68;;
10126;SDS011;13080;42.608;23.362;2023-05-08T03:05:38;17.15;;;14.73;;
10126;SDS011;13080;42.608;23.362;2023-05-08T03:08:13;14.45;;;9.93;;
10126;SDS011;13080;42.608;23.362;2023-05-08T03:10:44;19.65;;;17.52;;
10126;SDS011;13080;42.608;23.362;2023-05-08T03:13:14;17.60;;;14.55;;
10126;SDS011;13080;42.608;23.362;2023-05-08T03:15:44;9.00;;;6.93;;
10126;SDS011;13080;42.608;23.362;2023-05-08T03:18:15;13.82;;;8.13;;
10126;SDS011;13080;42.608;23.362;2023-05-08T03:20:48;8.88;;;7.97;;
10126;SDS011;13080;42.608;23.362;2023-05-08T03:23:19;11.18;;;10.05;;
10126;SDS011;13080;42.608;23.362;2023-05-08T03:25:48;9.63;;;6.75;;
10126;SDS011;13080;42.608;23.362;2023-05-08T03:28:16;8.00;;;6.85;;
10126;SDS011;13080;42.608;23.362;2023-05-08T03:30:44;10.25;;;6.40;;
10126;SDS011;13080;42.608;23.362;2023-05-08T03:33:11;7.07;;;5.45;;
10126;SDS011;13080;42.608;23.362;2023-05-08T03:35:39;9.15;;;6.15;;
10126;SDS011;13080;42.608;23.362;2023-05-08T03:38:08;9.25;;;5.32;;
10126;SDS011;13080;42.608;23.362;2023-05-08T03:40:35;5.80;;;5.13;;
10126;SDS011;13080;42.608;23.362;2023-05-08T03:43:04;8.85;;;5.22;;
10126;SDS011;13080;42.608;23.362;2023-05-08T03:45:33;7.80;;;5.53;;
10126;SDS011;13080;42.608;23.362;2023-05-08T03:48:01;7.47;;;4.85;;
10126;SDS011;13080;42.608;23.362;2023-05-08T03:50:30;6.57;;;5.35;;
10126;SDS011;13080;42.608;23.362;2023-05-08T03:52:57;8.80;;;5.50;;
10126;SDS011;13080;42.608;23.362;2023-05-08T03:55:26;6.32;;;5.38;;
10126;SDS011;13080;42.608;23.362;2023-05-08T03:57:55;7.55;;;4.88;;
10126;SDS011;13080;42.608;23.362;2023-05-08T04:00:28;10.00;;;5.50;;
10126;SDS011;13080;42.608;23.362;2023-05-08T04:03:06;6.13;;;4.18;;
10126;SDS011;13080;42.608;23.362;2023-05-08T04:05:49;7.85;;;5.13;;
10126;SDS011;13080;42.608;23.362;2023-05-08T04:08:21;7.78;;;4.35;;
10126;SDS011;13080;42.608;23.362;2023-05-08T04:10:56;7.03;;;4.20;;
10126;SDS011;13080;42.608;23.362;2023-05-08T04:13:36;6.13;;;4.70;;
10126;SDS011;13080;42.608;23.362;2023-05-08T04:16:09;9.48;;;4.40;;
10126;SDS011;13080;42.608;23.362;2023-05-08T04:18:43;7.38;;;4.75;;
10126;SDS011;13080;42.608;23.362;2023-05-08T04:21:14;9.23;;;5.28;;
10126;SDS011;13080;42.608;23.362;2023-05-08T04:23:45;7.68;;;4.78;;
10126;SDS011;13080;42.608;23.362;2023-05-08T04:26:17;6.63;;;4.93;;
10126;SDS011;13080;42.608;23.362;2023-05-08T04:28:44;9.23;;;4.75;;
10126;SDS011;13080;42.608;23.362;2023-05-08T04:31:12;6.65;;;5.38;;
10126;SDS011;13080;42.608;23.362;2023-05-08T04:33:41;8.32;;;5.05;;
10126;SDS011;13080;42.608;23.362;2023-05-08T04:36:10;6.82;;;4.80;;
10126;SDS011;13080;42.608;23.362;2023-05-08T04:38:37;6.32;;;4.38;;
10126;SDS011;13080;42.608;23.362;2023-05-08T04:41:04;14.05;;;5.40;;
10126;SDS011;13080;42.608;23.362;2023-05-08T04:43:33;10.60;;;5.18;;
10126;SDS011;13080;42.608;23.362;2023-05-08T04:46:00;7.60;;;4.72;;
10126;SDS011;13080;42.608;23.362;2023-05-08T04:48:29;6.15;;;4.57;;
10126;SDS011;13080;42.608;23.362;2023-05-08T04:50:57;6.57;;;4.95;;
10126;SDS011;13080;42.608;23.362;2023-05-08T04:53:24;6.10;;;4.45;;
10126;SDS011;13080;42.608;23.362;2023-05-08T04:55:51;6.35;;;4.70;;
10126;SDS011;13080;42.608;23.362;2023-05-08T04:58:18;7.53;;;5.10;;
10126;SDS011;13080;42.608;23.362;2023-05-08T05:00:46;10.18;;;4.65;;
10126;SDS011;13080;42.608;23.362;2023-05-08T05:03:13;6.22;;;5.10;;
10126;SDS011;13080;42.608;23.362;2023-05-08T05:05:40;7.25;;;5.10;;
10126;SDS011;13080;42.608;23.362;2023-05-08T05:08:07;18.13;;;5.53;;
10126;SDS011;13080;42.608;23.362;2023-05-08T05:10:34;5.63;;;5.10;;
10126;SDS011;13080;42.608;23.362;2023-05-08T05:13:01;7.50;;;5.50;;
10126;SDS011;13080;42.608;23.362;2023-05-08T05:15:28;8.82;;;5.32;;
10126;SDS011;13080;42.608;23.362;2023-05-08T05:17:56;10.43;;;5.22;;
10126;SDS011;13080;42.608;23.362;2023-05-08T05:20:23;7.53;;;4.88;;
10126;SDS011;13080;42.608;23.362;2023-05-08T05:22:49;5.70;;;4.13;;
10126;SDS011;13080;42.608;23.362;2023-05-08T05:25:16;6.80;;;4.57;;
10126;SDS011;13080;42.608;23.362;2023-05-08T05:27:43;8.10;;;4.93;;
10126;SDS011;13080;42.608;23.362;2023-05-08T05:30:10;9.10;;;5.47;;
10126;SDS011;13080;42.608;23.362;2023-05-08T05:32:37;7.63;;;5.22;;
10126;SDS011;13080;42.608;23.362;2023-05-08T05:35:06;7.80;;;4.53;;
10126;SDS011;13080;42.608;23.362;2023-05-08T05:37:34;7.05;;;4.63;;
10126;SDS011;13080;42.608;23.362;2023-05-08T05:40:01;7.00;;;4.35;;
10126;SDS011;13080;42.608;23.362;2023-05-08T05:42:28;4.60;;;3.97;;
10126;SDS011;13080;42.608;23.362;2023-05-08T05:44:55;7.00;;;4.60;;
10126;SDS011;13080;42.608;23.362;2023-05-08T05:47:22;7.70;;;4.00;;
10126;SDS011;13080;42.608;23.362;2023-05-08T05:49:51;5.65;;;3.58;;
10126;SDS011;13080;42.608;23.362;2023-05-08T05:52:19;6.90;;;4.18;;
10126;SDS011;13080;42.608;23.362;2023-05-08T05:54:46;6.07;;;3.97;;
10126;SDS011;13080;42.608;23.362;2023-05-08T05:57:13;7.05;;;4.18;;
10126;SDS011;13080;42.608;23.362;2023-05-08T05:59:40;7.25;;;4.28;;
10126;SDS011;13080;42.608;23.362;2023-05-08T06:02:07;5.68;;;3.92;;
10126;SDS011;13080;42.608;23.362;2023-05-08T06:04:38;6.95;;;4.53;;
10126;SDS011;13080;42.608;23.362;2023-05-08T06:07:05;8.73;;;4.82;;
10126;SDS011;13080;42.608;23.362;2023-05-08T06:09:33;7.20;;;4.93;;
10126;SDS011;13080;42.608;23.362;2023-05-08T06:12:00;7.68;;;4.50;;
10126;SDS011;13080;42.608;23.362;2023-05-08T06:14:27;5.95;;;4.05;;
10126;SDS011;13080;42.608;23.362;2023-05-08T06:16:54;7.70;;;4.70;;
10126;SDS011;13080;42.608;23.362;2023-05-08T06:19:21;6.80;;;4.10;;
10126;SDS011;13080;42.608;23.362;2023-05-08T06:21:49;6.35;;;4.38;;
10126;SDS011;13080;42.608;23.362;2023-05-08T06:24:16;6.55;;;4.40;;
10126;SDS011;13080;42.608;23.362;2023-05-08T06:26:44;7.78;;;3.55;;
10126;SDS011;13080;42.608;23.362;2023-05-08T06:29:11;7.25;;;4.20;;
10126;SDS011;13080;42.608;23.362;2023-05-08T06:31:38;5.85;;;3.95;;
10126;SDS011;13080;42.608;23.362;2023-05-08T06:34:05;7.20;;;3.88;;
10126;SDS011;13080;42.608;23.362;2023-05-08T06:36:32;4.93;;;4.13;;
10126;SDS011;13080;42.608;23.362;2023-05-08T06:38:58;8.73;;;3.70;;
10126;SDS011;13080;42.608;23.362;2023-05-08T06:41:25;7.57;;;3.92;;
10126;SDS011;13080;42.608;23.362;2023-05-08T06:43:53;7.03;;;3.80;;
10126;SDS011;13080;42.608;23.362;2023-05-08T06:46:20;6.50;;;3.40;;
10126;SDS011;13080;42.608;23.362;2023-05-08T06:48:47;4.60;;;3.03;;
10126;SDS011;13080;42.608;23.362;2023-05-08T06:51:14;7.15;;;3.60;;
10126;SDS011;13080;42.608;23.362;2023-05-08T06:53:41;5.72;;;2.85;;
10126;SDS011;13080;42.608;23.362;2023-05-08T06:56:08;8.50;;;3.53;;
10126;SDS011;13080;42.608;23.362;2023-05-08T06:58:35;5.28;;;3.10;;
10126;SDS011;13080;42.608;23.362;2023-05-08T07:01:03;4.35;;;3.22;;
10126;SDS011;13080;42.608;23.362;2023-05-08T07:03:29;5.07;;;2.72;;
10126;SDS011;13080;42.608;23.362;2023-05-08T07:05:56;5.13;;;3.20;;
10126;SDS011;13080;42.608;23.362;2023-05-08T07:08:23;7.07;;;3.47;;
10126;SDS011;13080;42.608;23.362;2023-05-08T07:10:50;6.20;;;3.22;;
10126;SDS011;13080;42.608;23.362;2023-05-08T07:13:17;5.35;;;3.28;;
10126;SDS011;13080;42.608;23.362;2023-05-08T07:15:46;4.00;;;3.28;;
10126;SDS011;13080;42.608;23.362;2023-05-08T07:18:14;7.70;;;3.78;;
10126;SDS011;13080;42.608;23.362;2023-05-08T07:20:41;9.88;;;4.45;;
10126;SDS011;13080;42.608;23.362;2023-05-08T07:23:08;7.68;;;3.72;;
10126;SDS011;13080;42.608;23.362;2023-05-08T07:25:35;5.90;;;4.15;;
10126;SDS011;13080;42.608;23.362;2023-05-08T07:28:01;6.20;;;3.72;;
10126;SDS011;13080;42.608;23.362;2023-05-08T07:30:28;5.53;;;4.20;;
10126;SDS011;13080;42.608;23.362;2023-05-08T07:32:55;11.15;;;5.40;;
10126;SDS011;13080;42.608;23.362;2023-05-08T07:35:24;7.57;;;4.32;;
10126;SDS011;13080;42.608;23.362;2023-05-08T07:37:51;10.50;;;4.78;;
10126;SDS011;13080;42.608;23.362;2023-05-08T07:40:18;9.57;;;4.57;;
10126;SDS011;13080;42.608;23.362;2023-05-08T07:42:45;7.63;;;4.55;;
10126;SDS011;13080;42.608;23.362;2023-05-08T07:45:12;7.63;;;4.72;;
10126;SDS011;13080;42.608;23.362;2023-05-08T07:47:47;8.55;;;4.93;;
10126;SDS011;13080;42.608;23.362;2023-05-08T07:50:15;8.77;;;4.80;;
10126;SDS011;13080;42.608;23.362;2023-05-08T07:52:43;8.00;;;4.38;;
10126;SDS011;13080;42.608;23.362;2023-05-08T07:55:10;7.53;;;5.30;;
10126;SDS011;13080;42.608;23.362;2023-05-08T07:57:36;9.73;;;4.72;;
10126;SDS011;13080;42.608;23.362;2023-05-08T08:00:04;6.57;;;4.10;;
10126;SDS011;13080;42.608;23.362;2023-05-08T08:02:31;7.68;;;5.18;;
10126;SDS011;13080;42.608;23.362;2023-05-08T08:04:58;10.27;;;5.38;;
10126;SDS011;13080;42.608;23.362;2023-05-08T08:07:25;11.20;;;4.82;;
10126;SDS011;13080;42.608;23.362;2023-05-08T08:09:53;6.38;;;4.88;;
10126;SDS011;13080;42.608;23.362;2023-05-08T08:12:20;11.07;;;5.35;;
10126;SDS011;13080;42.608;23.362;2023-05-08T08:14:47;7.10;;;4.68;;
10126;SDS011;13080;42.608;23.362;2023-05-08T08:17:15;11.18;;;5.18;;
10126;SDS011;13080;42.608;23.362;2023-05-08T08:19:42;7.60;;;4.85;;
10126;SDS011;13080;42.608;23.362;2023-05-08T08:22:09;8.05;;;5.20;;
10126;SDS011;13080;42.608;23.362;2023-05-08T08:24:35;14.88;;;4.70;;
10126;SDS011;13080;42.608;23.362;2023-05-08T08:27:04;8.43;;;5.22;;
10126;SDS011;13080;42.608;23.362;2023-05-08T08:29:30;13.73;;;5.63;;
10126;SDS011;13080;42.608;23.362;2023-05-08T08:31:57;9.18;;;6.15;;
10126;SDS011;13080;42.608;23.362;2023-05-08T08:34:24;8.85;;;5.90;;
10126;SDS011;13080;42.608;23.362;2023-05-08T08:36:51;12.50;;;6.63;;
10126;SDS011;13080;42.608;23.362;2023-05-08T08:39:18;9.30;;;6.60;;
10126;SDS011;13080;42.608;23.362;2023-05-08T08:41:45;11.63;;;6.10;;
10126;SDS011;13080;42.608;23.362;2023-05-08T08:44:13;10.40;;;6.25;;
10126;SDS011;13080;42.608;23.362;2023-05-08T08:46:42;12.25;;;6.75;;
10126;SDS011;13080;42.608;23.362;2023-05-08T08:49:16;7.18;;;4.90;;
10126;SDS011;13080;42.608;23.362;2023-05-08T08:51:48;10.50;;;4.97;;
10126;SDS011;13080;42.608;23.362;2023-05-08T08:54:19;8.27;;;5.10;;
10126;SDS011;13080;42.608;23.362;2023-05-08T08:56:48;6.95;;;4.63;;
10126;SDS011;13080;42.608;23.362;2023-05-08T08:59:18;13.20;;;4.95;;
10126;SDS011;13080;42.608;23.362;2023-05-08T09:01:46;9.00;;;5.00;;
10126;SDS011;13080;42.608;23.362;2023-05-08T09:04:16;6.03;;;4.63;;
10126;SDS011;13080;42.608;23.362;2023-05-08T09:06:43;8.13;;;5.03;;
10126;SDS011;13080;42.608;23.362;2023-05-08T09:09:10;8.48;;;4.82;;
10126;SDS011;13080;42.608;23.362;2023-05-08T09:11:38;7.68;;;4.20;;
10126;SDS011;13080;42.608;23.362;2023-05-08T09:14:05;10.52;;;4.70;;
10126;SDS011;13080;42.608;23.362;2023-05-08T09:16:34;7.60;;;4.45;;
10126;SDS011;13080;42.608;23.362;2023-05-08T09:19:01;7.57;;;4.15;;
10126;SDS011;13080;42.608;23.362;2023-05-08T09:21:28;9.15;;;4.50;;
10126;SDS011;13080;42.608;23.362;2023-05-08T09:23:56;11.25;;;4.93;;
10126;SDS011;13080;42.608;23.362;2023-05-08T09:26:26;5.55;;;4.15;;
10126;SDS011;13080;42.608;23.362;2023-05-08T09:29:06;12.90;;;5.47;;
10126;SDS011;13080;42.608;23.362;2023-05-08T09:31:35;16.05;;;4.75;;
10126;SDS011;13080;42.608;23.362;2023-05-08T09:34:04;8.65;;;4.90;;
10126;SDS011;13080;42.608;23.362;2023-05-08T09:36:31;7.53;;;4.68;;
10126;SDS011;13080;42.608;23.362;2023-05-08T09:38:58;9.73;;;4.82;;
10126;SDS011;13080;42.608;23.362;2023-05-08T09:41:25;9.30;;;4.50;;
10126;SDS011;13080;42.608;23.362;2023-05-08T09:43:59;5.90;;;4.35;;
10126;SDS011;13080;42.608;23.362;2023-05-08T09:46:27;11.98;;;4.70;;
10126;SDS011;13080;42.608;23.362;2023-05-08T09:48:55;9.27;;;4.28;;
10126;SDS011;13080;42.608;23.362;2023-05-08T09:51:24;5.63;;;4.35;;
10126;SDS011;13080;42.608;23.362;2023-05-08T09:53:52;6.88;;;4.35;;
10126;SDS011;13080;42.608;23.362;2023-05-08T09:56:32;8.10;;;4.78;;
10126;SDS011;13080;42.608;23.362;2023-05-08T09:59:00;11.23;;;4.72;;
10126;SDS011;13080;42.608;23.362;2023-05-08T10:01:29;9.23;;;4.60;;
10126;SDS011;13080;42.608;23.362;2023-05-08T10:03:59;7.88;;;4.15;;
10126;SDS011;13080;42.608;23.362;2023-05-08T10:06:27;17.17;;;4.80;;
10126;SDS011;13080;42.608;23.362;2023-05-08T10:09:07;8.95;;;4.70;;
10126;SDS011;13080;42.608;23.362;2023-05-08T10:11:36;10.93;;;5.25;;
10126;SDS011;13080;42.608;23.362;2023-05-08T10:14:03;10.75;;;4.80;;
10126;SDS011;13080;42.608;23.362;2023-05-08T10:16:30;10.55;;;4.63;;
10126;SDS011;13080;42.608;23.362;2023-05-08T10:19:07;8.48;;;4.72;;
10126;SDS011;13080;42.608;23.362;2023-05-08T10:21:38;9.30;;;5.03;;
10126;SDS011;13080;42.608;23.362;2023-05-08T10:24:11;8.10;;;5.05;;
10126;SDS011;13080;42.608;23.362;2023-05-08T10:26:41;7.50;;;5.13;;
10126;SDS011;13080;42.608;23.362;2023-05-08T10:29:11;7.07;;;4.28;;
10126;SDS011;13080;42.608;23.362;2023-05-08T10:31:44;8.88;;;5.00;;
10126;SDS011;13080;42.608;23.362;2023-05-08T10:34:21;7.68;;;4.82;;
10126;SDS011;13080;42.608;23.362;2023-05-08T10:36:48;11.88;;;4.82;;
10126;SDS011;13080;42.608;23.362;2023-05-08T10:39:17;10.68;;;4.82;;
10126;SDS011;13080;42.608;23.362;2023-05-08T10:41:44;10.65;;;5.03;;
10126;SDS011;13080;42.608;23.362;2023-05-08T10:44:12;10.32;;;5.35;;
10126;SDS011;13080;42.608;23.362;2023-05-08T10:46:41;8.50;;;5.15;;
10126;SDS011;13080;42.608;23.362;2023-05-08T10:49:21;8.05;;;4.63;;
10126;SDS011;13080;42.608;23.362;2023-05-08T10:51:57;7.70;;;4.93;;
10126;SDS011;13080;42.608;23.362;2023-05-08T10:54:33;9.93;;;4.68;;
10126;SDS011;13080;42.608;23.362;2023-05-08T10:57:08;9.38;;;5.10;;
10126;SDS011;13080;42.608;23.362;2023-05-08T10:59:35;9.68;;;5.03;;
10126;SDS011;13080;42.608;23.362;2023-05-08T11:02:03;9.32;;;4.88;;
10126;SDS011;13080;42.608;23.362;2023-05-08T11:04:35;8.90;;;5.00;;
10126;SDS011;13080;42.608;23.362;2023-05-08T11:07:09;6.95;;;4.80;;
10126;SDS011;13080;42.608;23.362;2023-05-08T11:09:46;7.28;;;4.47;;
10126;SDS011;13080;42.608;23.362;2023-05-08T11:12:19;6.53;;;4.65;;
10126;SDS011;13080;42.608;23.362;2023-05-08T11:14:54;6.93;;;4.50;;
10126;SDS011;13080;42.608;23.362;2023-05-08T11:17:26;9.00;;;4.82;;
10126;SDS011;13080;42.608;23.362;2023-05-08T11:19:56;7.00;;;4.70;;
10126;SDS011;13080;42.608;23.362;2023-05-08T11:22:25;6.47;;;4.75;;
10126;SDS011;13080;42.608;23.362;2023-05-08T11:24:54;9.10;;;5.70;;
10126;SDS011;13080;42.608;23.362;2023-05-08T11:27:39;8.40;;;5.20;;
10126;SDS011;13080;42.608;23.362;2023-05-08T11:30:38;10.63;;;5.03;;
10126;SDS011;13080;42.608;23.362;2023-05-08T11:35:56;7.18;;;4.90;;
10126;SDS011;13080;42.608;23.362;2023-05-08T11:38:31;8.35;;;5.20;;
10126;SDS011;13080;42.608;23.362;2023-05-08T11:41:00;9.02;;;4.95;;
10126;SDS011;13080;42.608;23.362;2023-05-08T11:46:34;6.30;;;5.13;;
10126;SDS011;13080;42.608;23.362;2023-05-08T11:49:05;7.50;;;5.10;;
10126;SDS011;13080;42.608;23.362;2023-05-08T11:51:37;5.60;;;4.60;;
10126;SDS011;13080;42.608;23.362;2023-05-08T11:54:08;11.35;;;5.53;;
10126;SDS011;13080;42.608;23.362;2023-05-08T11:56:37;8.48;;;4.55;;
10126;SDS011;13080;42.608;23.362;2023-05-08T11:59:04;9.02;;;5.38;;
10126;SDS011;13080;42.608;23.362;2023-05-08T12:01:33;5.28;;;4.60;;
10126;SDS011;13080;42.608;23.362;2023-05-08T12:04:00;8.90;;;4.97;;
10126;SDS011;13080;42.608;23.362;2023-05-08T12:06:28;7.07;;;5.00;;
10126;SDS011;13080;42.608;23.362;2023-05-08T12:08:59;8.60;;;5.20;;
10126;SDS011;13080;42.608;23.362;2023-05-08T12:11:28;7.93;;;4.57;;
10126;SDS011;13080;42.608;23.362;2023-05-08T12:13:55;6.63;;;4.88;;
10126;SDS011;13080;42.608;23.362;2023-05-08T12:16:22;8.48;;;5.00;;
10126;SDS011;13080;42.608;23.362;2023-05-08T12:18:50;5.90;;;4.90;;
10126;SDS011;13080;42.608;23.362;2023-05-08T12:21:17;7.20;;;4.20;;
10126;SDS011;13080;42.608;23.362;2023-05-08T12:23:45;6.50;;;4.88;;
10126;SDS011;13080;42.608;23.362;2023-05-08T12:26:13;6.05;;;4.18;;
10126;SDS011;13080;42.608;23.362;2023-05-08T12:28:42;7.75;;;4.65;;
10126;SDS011;13080;42.608;23.362;2023-05-08T12:31:10;9.57;;;5.10;;
10126;SDS011;13080;42.608;23.362;2023-05-08T12:33:37;7.47;;;4.88;;
10126;SDS011;13080;42.608;23.362;2023-05-08T12:36:05;4.97;;;4.47;;
10126;SDS011;13080;42.608;23.362;2023-05-08T12:38:32;5.60;;;4.68;;
10126;SDS011;13080;42.608;23.362;2023-05-08T12:40:59;7.50;;;5.22;;
10126;SDS011;13080;42.608;23.362;2023-05-08T12:43:33;6.65;;;4.80;;
10126;SDS011;13080;42.608;23.362;2023-05-08T12:46:00;11.15;;;5.72;;
10126;SDS011;13080;42.608;23.362;2023-05-08T12:48:28;7.57;;;5.82;;
10126;SDS011;13080;42.608;23.362;2023-05-08T12:50:59;6.82;;;5.13;;
10126;SDS011;13080;42.608;23.362;2023-05-08T12:53:28;10.63;;;4.97;;
10126;SDS011;13080;42.608;23.362;2023-05-08T12:55:56;8.00;;;5.93;;
10126;SDS011;13080;42.608;23.362;2023-05-08T12:58:26;7.55;;;5.88;;
10126;SDS011;13080;42.608;23.362;2023-05-08T13:01:03;8.82;;;5.93;;
10126;SDS011;13080;42.608;23.362;2023-05-08T13:03:34;8.60;;;5.90;;
10126;SDS011;13080;42.608;23.362;2023-05-08T13:06:01;6.32;;;4.95;;
10126;SDS011;13080;42.608;23.362;2023-05-08T13:08:28;6.95;;;5.30;;
10126;SDS011;13080;42.608;23.362;2023-05-08T13:10:57;7.55;;;5.38;;
10126;SDS011;13080;42.608;23.362;2023-05-08T13:13:25;6.47;;;5.55;;
10126;SDS011;13080;42.608;23.362;2023-05-08T13:15:53;8.73;;;5.53;;
10126;SDS011;13080;42.608;23.362;2023-05-08T13:18:22;8.30;;;5.45;;
10126;SDS011;13080;42.608;23.362;2023-05-08T13:20:50;8.35;;;5.60;;
10126;SDS011;13080;42.608;23.362;2023-05-08T13:23:17;8.38;;;5.22;;
10126;SDS011;13080;42.608;23.362;2023-05-08T13:25:43;6.00;;;4.85;;
10126;SDS011;13080;42.608;23.362;2023-05-08T13:28:10;6.63;;;3.90;;
10126;SDS011;13080;42.608;23.362;2023-05-08T13:30:37;4.85;;;4.35;;
10126;SDS011;13080;42.608;23.362;2023-05-08T13:33:04;7.60;;;3.90;;
10126;SDS011;13080;42.608;23.362;2023-05-08T13:35:33;5.72;;;4.38;;
10126;SDS011;13080;42.608;23.362;2023-05-08T13:38:00;5.25;;;4.03;;
10126;SDS011;13080;42.608;23.362;2023-05-08T13:40:27;7.28;;;4.20;;
10126;SDS011;13080;42.608;23.362;2023-05-08T13:42:54;8.85;;;3.83;;
10126;SDS011;13080;42.608;23.362;2023-05-08T13:45:20;6.03;;;3.83;;
10126;SDS011;13080;42.608;23.362;2023-05-08T13:47:48;6.95;;;4.28;;
10126;SDS011;13080;42.608;23.362;2023-05-08T13:50:15;5.45;;;4.03;;
10126;SDS011;13080;42.608;23.362;2023-05-08T13:52:44;6.57;;;4.07;;
10126;SDS011;13080;42.608;23.362;2023-05-08T13:55:11;4.97;;;3.70;;
10126;SDS011;13080;42.608;23.362;2023-05-08T13:57:39;5.65;;;3.63;;
10126;SDS011;13080;42.608;23.362;2023-05-08T14:00:06;7.00;;;4.03;;
10126;SDS011;13080;42.608;23.362;2023-05-08T14:02:34;7.15;;;3.83;;
10126;SDS011;13080;42.608;23.362;2023-05-08T14:05:01;5.38;;;3.88;;
10126;SDS011;13080;42.608;23.362;2023-05-08T14:07:28;5.78;;;4.63;;
10126;SDS011;13080;42.608;23.362;2023-05-08T14:09:56;6.00;;;4.22;;
10126;SDS011;13080;42.608;23.362;2023-05-08T14:12:23;5.47;;;3.80;;
10126;SDS011;13080;42.608;23.362;2023-05-08T14:14:49;8.00;;;4.15;;
10126;SDS011;13080;42.608;23.362;2023-05-08T14:17:16;11.90;;;4.65;;
10126;SDS011;13080;42.608;23.362;2023-05-08T14:19:43;6.85;;;4.90;;
10126;SDS011;13080;42.608;23.362;2023-05-08T14:22:11;9.60;;;4.97;;
10126;SDS011;13080;42.608;23.362;2023-05-08T14:24:37;9.52;;;5.32;;
10126;SDS011;13080;42.608;23.362;2023-05-08T14:27:06;6.40;;;4.82;;
10126;SDS011;13080;42.608;23.362;2023-05-08T14:29:32;7.35;;;4.78;;
10126;SDS011;13080;42.608;23.362;2023-05-08T14:31:59;6.88;;;5.03;;
10126;SDS011;13080;42.608;23.362;2023-05-08T14:34:26;8.48;;;6.32;;
10126;SDS011;13080;42.608;23.362;2023-05-08T14:36:53;7.63;;;6.10;;
10126;SDS011;13080;42.608;23.362;2023-05-08T14:39:20;6.82;;;5.30;;
10126;SDS011;13080;42.608;23.362;2023-05-08T14:41:47;6.68;;;4.50;;
10126;SDS011;13080;42.608;23.362;2023-05-08T14:44:15;6.85;;;4.38;;
10126;SDS011;13080;42.608;23.362;2023-05-08T14:46:42;5.60;;;4.80;;
10126;SDS011;13080;42.608;23.362;2023-05-08T14:49:08;6.32;;;4.38;;
10126;SDS011;13080;42.608;23.362;2023-05-08T14:51:35;8.55;;;4.50;;